createdAt,value
2022-09-04T00:00:24.455Z,65.16
2022-09-04T00:03:28.914Z,65.24
2022-09-04T00:06:19.579Z,65.10
2022-09-04T00:09:12.774Z,65.13
2022-09-04T00:12:07.435Z,64.96
2022-09-04T00:15:01.175Z,65.03
2022-09-04T00:17:56.416Z,65.33
2022-09-04T00:20:53.518Z,65.31
2022-09-04T00:23:41.410Z,65.59
2022-09-04T00:27:00.113Z,65.42
2022-09-04T00:29:51.246Z,65.67
2022-09-04T00:32:55.969Z,65.12
2022-09-04T00:35:47.521Z,65.71
2022-09-04T00:38:47.602Z,65.81
2022-09-04T00:41:44.711Z,66.29
2022-09-04T00:44:47.556Z,66.16
2022-09-04T00:47:42.489Z,65.76
2022-09-04T00:50:46.093Z,66.34
2022-09-04T00:54:09.159Z,66.26
2022-09-04T00:57:29.516Z,66.08
2022-09-04T01:00:22.473Z,66.13
2022-09-04T01:03:07.668Z,66.29
2022-09-04T01:06:08.349Z,66.42
2022-09-04T01:09:32.015Z,66.31
2022-09-04T01:12:37.702Z,66.88
2022-09-04T01:15:48.935Z,67.66
2022-09-04T01:18:54.176Z,67.60
2022-09-04T01:21:48.361Z,67.92
2022-09-04T01:24:48.210Z,67.39
2022-09-04T01:28:18.865Z,68.24
2022-09-04T01:31:26.733Z,68.41
2022-09-04T01:34:36.845Z,68.80
2022-09-04T01:37:59.285Z,68.10
2022-09-04T01:40:53.648Z,68.54
2022-09-04T01:43:40.069Z,68.97
2022-09-04T01:46:49.842Z,69.47
2022-09-04T01:49:42.311Z,69.60
2022-09-04T01:52:38.525Z,69.21
2022-09-04T01:55:35.985Z,69.21
2022-09-04T01:58:39.331Z,68.73
2022-09-04T02:01:36.904Z,68.90
2022-09-04T02:04:38.445Z,69.00
2022-09-04T02:07:50.611Z,68.83
2022-09-04T02:11:03.933Z,68.78
2022-09-04T02:14:11.140Z,69.54
2022-09-04T02:17:09.250Z,69.42
2022-09-04T02:19:54.190Z,69.88
2022-09-04T02:22:58.872Z,69.89
2022-09-04T02:26:10.024Z,70.44
2022-09-04T02:29:15.691Z,70.75
2022-09-04T02:32:21.307Z,70.07
2022-09-04T02:35:16.493Z,70.05
2022-09-04T02:38:10.683Z,70.92
2022-09-04T02:41:22.209Z,70.57
2022-09-04T02:44:24.357Z,70.69
2022-09-04T02:47:21.485Z,72.88
2022-09-04T02:50:40.842Z,72.36
2022-09-04T02:54:02.539Z,72.68
2022-09-04T02:57:08.815Z,72.43
2022-09-04T03:00:08.298Z,72.74
2022-09-04T03:03:09.716Z,73.76
2022-09-04T03:06:03.949Z,73.88
2022-09-04T03:09:01.843Z,74.19
2022-09-04T03:12:12.631Z,74.00
2022-09-04T03:15:31.729Z,73.24
2022-09-04T03:18:55.583Z,73.25
2022-09-04T03:21:59.620Z,73.24
2022-09-04T03:25:05.854Z,72.47
2022-09-04T03:27:51.020Z,73.33
2022-09-04T03:30:38.369Z,73.35
2022-09-04T03:33:48.752Z,72.61
2022-09-04T03:36:39.837Z,72.25
2022-09-04T03:39:49.576Z,72.92
2022-09-04T03:42:47.855Z,72.71
2022-09-04T03:45:51.891Z,72.19
2022-09-04T03:48:55.030Z,72.92
2022-09-04T03:51:58.720Z,72.65
2022-09-04T03:55:02.099Z,74.09
2022-09-04T03:57:56.194Z,72.67
2022-09-04T04:01:10.310Z,73.10
2022-09-04T04:04:52.810Z,73.84
2022-09-04T04:07:40.389Z,73.75
2022-09-04T04:10:43.716Z,74.93
2022-09-04T04:14:05.398Z,74.42
2022-09-04T04:17:05.476Z,74.92
2022-09-04T04:19:59.883Z,75.60
2022-09-04T04:23:09.991Z,75.84
2022-09-04T04:26:16.962Z,76.14
2022-09-04T04:29:11.580Z,76.61
2022-09-04T04:32:06.525Z,76.14
2022-09-04T04:35:02.849Z,76.60
2022-09-04T04:38:02.664Z,75.53
2022-09-04T04:41:00.221Z,75.15
2022-09-04T04:44:15.536Z,76.97
2022-09-04T04:47:14.504Z,77.62
2022-09-04T04:50:12.217Z,77.59
2022-09-04T04:53:24.740Z,76.94
2022-09-04T04:56:24.208Z,76.89
2022-09-04T04:59:25.906Z,76.18
2022-09-04T05:02:22.210Z,77.48
2022-09-04T05:05:17.455Z,77.31
2022-09-04T05:08:20.562Z,76.88
2022-09-04T05:11:31.901Z,76.85
2022-09-04T05:14:39.725Z,76.00
2022-09-04T05:17:36.410Z,76.33
2022-09-04T05:20:38.831Z,75.75
2022-09-04T05:23:44.937Z,75.20
2022-09-04T05:26:41.299Z,74.72
2022-09-04T05:29:39.097Z,74.97
2022-09-04T05:32:38.429Z,73.98
2022-09-04T05:35:40.185Z,73.52
2022-09-04T05:38:36.029Z,74.14
2022-09-04T05:41:28.342Z,74.06
2022-09-04T05:44:27.783Z,72.97
2022-09-04T05:47:34.360Z,73.38
2022-09-04T05:50:34.515Z,73.09
2022-09-04T05:53:38.972Z,72.65
2022-09-04T05:56:39.513Z,71.57
2022-09-04T05:59:44.089Z,71.64
2022-09-04T06:02:51.586Z,71.78
2022-09-04T06:06:06.198Z,71.05
2022-09-04T06:08:57.221Z,71.40
2022-09-04T06:12:09.404Z,71.66
2022-09-04T06:15:10.996Z,71.30
2022-09-04T06:18:07.799Z,70.87
2022-09-04T06:21:24.460Z,70.51
2022-09-04T06:24:21.711Z,69.68
2022-09-04T06:27:20.250Z,70.45
2022-09-04T06:30:07.084Z,69.52
2022-09-04T06:33:31.627Z,69.16
2022-09-04T06:36:32.149Z,68.59
2022-09-04T06:39:37.662Z,68.87
2022-09-04T06:42:52.677Z,68.63
2022-09-04T06:46:02.655Z,68.76
2022-09-04T06:48:58.851Z,67.72
2022-09-04T06:52:45.933Z,66.77
2022-09-04T06:55:31.376Z,66.22
2022-09-04T06:58:22.602Z,65.30
2022-09-04T07:01:24.965Z,65.40
2022-09-04T07:04:27.374Z,64.46
2022-09-04T07:07:18.180Z,63.50
2022-09-04T07:10:29.082Z,62.03
2022-09-04T07:13:20.163Z,61.91
2022-09-04T07:16:26.076Z,63.19
2022-09-04T07:19:48.000Z,60.41
2022-09-04T07:22:51.064Z,59.39
2022-09-04T07:26:05.345Z,57.88
2022-09-04T07:29:19.115Z,57.40
2022-09-04T07:32:11.587Z,57.88
2022-09-04T07:35:05.001Z,57.34
2022-09-04T07:37:59.833Z,58.24
2022-09-04T07:40:51.421Z,56.96
2022-09-04T07:43:42.724Z,56.87
2022-09-04T07:47:01.685Z,54.94
2022-09-04T07:50:00.379Z,55.66
2022-09-04T07:53:06.352Z,55.04
2022-09-04T07:56:19.635Z,55.23
2022-09-04T07:59:27.427Z,53.89
2022-09-04T08:02:28.275Z,52.97
2022-09-04T08:05:19.422Z,54.76
2022-09-04T08:08:04.645Z,54.65
2022-09-04T08:11:13.398Z,53.31
2022-09-04T08:14:22.102Z,53.11
2022-09-04T08:17:45.154Z,52.94
2022-09-04T08:21:00.477Z,52.68
2022-09-04T08:24:04.140Z,52.23
2022-09-04T08:27:23.405Z,54.83
2022-09-04T08:30:10.675Z,51.83
2022-09-04T08:33:23.795Z,53.43
2022-09-04T08:36:15.768Z,54.47
2022-09-04T08:39:19.277Z,52.34
2022-09-04T08:42:25.650Z,51.02
2022-09-04T08:45:42.017Z,53.29
2022-09-04T08:48:42.901Z,54.08
2022-09-04T08:51:46.549Z,55.18
2022-09-04T08:55:06.713Z,53.01
2022-09-04T08:58:16.328Z,53.40
2022-09-04T09:01:23.559Z,51.51
2022-09-04T09:04:24.208Z,52.86
2022-09-04T09:07:28.180Z,51.80
2022-09-04T09:10:37.210Z,52.32
2022-09-04T09:13:47.636Z,51.93
2022-09-04T09:16:59.094Z,52.14
2022-09-04T09:20:07.949Z,52.66
2022-09-04T09:23:33.169Z,54.17
2022-09-04T09:26:29.051Z,55.63
2022-09-04T09:30:02.060Z,57.68
2022-09-04T09:33:25.049Z,56.88
2022-09-04T09:36:55.263Z,57.38
2022-09-04T09:39:55.654Z,58.51
2022-09-04T09:43:08.972Z,59.02
2022-09-04T09:46:21.465Z,59.53
2022-09-04T09:49:31.961Z,59.67
2022-09-04T09:52:26.087Z,58.85
2022-09-04T09:55:20.199Z,58.96
2022-09-04T09:58:33.737Z,58.89
2022-09-04T10:01:24.962Z,58.65
2022-09-04T10:04:34.250Z,58.50
2022-09-04T10:07:22.457Z,57.29
2022-09-04T10:10:45.125Z,58.18
2022-09-04T10:13:45.557Z,57.99
2022-09-04T10:17:08.613Z,58.57
2022-09-04T10:20:17.649Z,58.15
2022-09-04T10:23:11.954Z,57.04
2022-09-04T10:26:36.516Z,56.83
2022-09-04T10:29:43.028Z,56.68
2022-09-04T10:35:46.205Z,57.33
2022-09-04T10:38:44.877Z,56.50
2022-09-04T10:41:57.164Z,56.63
2022-09-04T10:45:10.708Z,56.37
2022-09-04T10:48:28.442Z,56.54
2022-09-04T10:51:35.145Z,56.08
2022-09-04T10:54:35.953Z,56.52
2022-09-04T10:57:28.914Z,55.59
2022-09-04T11:00:21.181Z,55.23
2022-09-04T11:03:09.594Z,55.65
2022-09-04T11:06:16.676Z,55.22
2022-09-04T11:09:20.292Z,55.09
2022-09-04T11:12:11.648Z,55.69
2022-09-04T11:15:52.681Z,55.82
2022-09-04T11:19:02.424Z,55.80
2022-09-04T11:22:24.946Z,55.31
2022-09-04T11:25:32.782Z,54.95
2022-09-04T11:28:43.116Z,55.01
2022-09-04T11:31:40.521Z,55.52
2022-09-04T11:35:03.499Z,55.50
2022-09-04T11:37:54.649Z,55.02
2022-09-04T11:41:04.193Z,55.99
2022-09-04T11:44:09.491Z,55.87
2022-09-04T11:46:57.564Z,55.50
2022-09-04T11:50:01.437Z,53.77
2022-09-04T11:52:52.547Z,52.12
2022-09-04T11:56:06.608Z,51.59
2022-09-04T11:59:46.326Z,52.24
2022-09-04T12:02:55.750Z,51.77
2022-09-04T12:05:49.973Z,49.11
2022-09-04T12:09:05.749Z,48.02
2022-09-04T12:12:28.156Z,48.23
2022-09-04T12:15:40.805Z,48.29
2022-09-04T12:18:37.979Z,46.96
2022-09-04T12:21:52.665Z,45.17
2022-09-04T12:24:48.431Z,45.42
2022-09-04T12:27:57.621Z,46.89
2022-09-04T12:31:31.078Z,45.37
2022-09-04T12:34:44.264Z,44.71
2022-09-04T12:37:44.770Z,43.16
2022-09-04T12:40:55.998Z,44.79
2022-09-04T12:44:38.515Z,43.01
2022-09-04T12:47:35.617Z,44.60
2022-09-04T12:50:59.268Z,45.73
2022-09-04T12:54:10.069Z,46.02
2022-09-04T12:57:21.636Z,43.85
2022-09-04T13:00:10.452Z,44.61
2022-09-04T13:03:33.236Z,45.01
2022-09-04T13:06:57.761Z,43.94
2022-09-04T13:09:59.758Z,42.11
2022-09-04T13:12:51.151Z,41.71
2022-09-04T13:15:55.237Z,41.87
2022-09-04T13:19:13.365Z,42.70
2022-09-04T13:22:18.095Z,45.51
2022-09-04T13:25:22.828Z,46.72
2022-09-04T13:28:49.442Z,45.93
2022-09-04T13:31:49.997Z,46.91
2022-09-04T13:34:41.088Z,47.38
2022-09-04T13:37:29.093Z,47.17
2022-09-04T13:40:49.642Z,46.60
2022-09-04T13:44:24.435Z,47.79
2022-09-04T13:47:24.523Z,47.75
2022-09-04T13:50:39.895Z,47.75
2022-09-04T13:53:35.449Z,48.06
2022-09-04T13:56:31.609Z,47.90
2022-09-04T13:59:18.937Z,48.07
2022-09-04T14:02:10.794Z,47.34
2022-09-04T14:05:09.264Z,48.46
2022-09-04T14:08:01.286Z,47.62
2022-09-04T14:10:59.387Z,48.28
2022-09-04T14:14:16.509Z,47.15
2022-09-04T14:17:01.627Z,47.28
2022-09-04T14:20:28.651Z,47.31
2022-09-04T14:23:19.474Z,46.85
2022-09-04T14:26:18.800Z,46.53
2022-09-04T14:29:17.907Z,46.32
2022-09-04T14:32:12.514Z,47.39
2022-09-04T14:35:01.401Z,46.48
2022-09-04T14:38:08.769Z,45.83
2022-09-04T14:40:59.032Z,46.45
2022-09-04T14:44:13.155Z,46.95
2022-09-04T14:47:04.721Z,47.97
2022-09-04T14:49:51.577Z,46.12
2022-09-04T14:52:45.964Z,46.25
2022-09-04T14:55:38.254Z,46.32
2022-09-04T14:58:34.582Z,47.14
2022-09-04T15:01:22.273Z,47.28
2022-09-04T15:04:18.988Z,47.49
2022-09-04T15:07:30.316Z,48.64
2022-09-04T15:10:21.898Z,47.63
2022-09-04T15:13:28.371Z,46.87
2022-09-04T15:16:19.966Z,45.65
2022-09-04T15:19:23.444Z,45.43
2022-09-04T15:22:18.421Z,45.33
2022-09-04T15:25:11.952Z,46.28
2022-09-04T15:28:05.995Z,46.21
2022-09-04T15:31:14.667Z,46.03
2022-09-04T15:34:03.876Z,46.72
2022-09-04T15:36:49.736Z,46.64
2022-09-04T15:40:00.266Z,47.04
2022-09-04T15:42:56.500Z,46.15
2022-09-04T15:45:46.524Z,46.05
2022-09-04T15:48:41.069Z,46.15
2022-09-04T15:51:37.916Z,45.77
2022-09-04T15:55:09.080Z,46.93
2022-09-04T15:58:03.329Z,46.88
2022-09-04T16:01:03.658Z,46.14
2022-09-04T16:03:51.697Z,46.22
2022-09-04T16:06:49.775Z,47.71
2022-09-04T16:10:01.645Z,48.05
2022-09-04T16:12:56.388Z,48.79
2022-09-04T16:15:44.632Z,50.00
2022-09-04T16:18:39.229Z,49.32
2022-09-04T16:21:37.373Z,49.17
2022-09-04T16:24:33.852Z,50.88
2022-09-04T16:27:27.789Z,51.05
2022-09-04T16:30:34.329Z,50.04
2022-09-04T16:33:43.814Z,50.60
2022-09-04T16:36:43.249Z,51.21
2022-09-04T16:39:38.600Z,50.47
2022-09-04T16:42:31.752Z,50.37
2022-09-04T16:45:25.884Z,51.30
2022-09-04T16:48:34.029Z,51.27
2022-09-04T16:51:39.476Z,50.84
2022-09-04T16:54:34.751Z,52.11
2022-09-04T16:57:36.806Z,53.68
2022-09-04T17:00:22.241Z,51.71
2022-09-04T17:03:18.464Z,54.65
2022-09-04T17:06:16.813Z,54.95
2022-09-04T17:09:44.489Z,55.26
2022-09-04T17:12:41.719Z,55.31
2022-09-04T17:15:53.041Z,55.62
2022-09-04T17:18:49.437Z,56.56
2022-09-04T17:23:57.682Z,56.32
2022-09-04T17:29:08.058Z,59.79
2022-09-04T17:29:11.496Z,59.91
2022-09-04T17:31:56.282Z,57.81
2022-09-04T17:40:32.127Z,56.23
2022-09-04T17:40:40.548Z,59.75
2022-09-04T17:42:08.256Z,59.08
2022-09-04T17:44:55.375Z,60.86
2022-09-04T17:47:42.590Z,60.88
2022-09-04T17:50:28.007Z,64.10
2022-09-04T17:53:29.769Z,61.88
2022-09-04T17:56:41.341Z,65.98
2022-09-04T17:59:29.660Z,65.50
2022-09-04T18:02:22.927Z,65.86
2022-09-04T18:05:26.797Z,62.51
2022-09-04T18:08:33.252Z,65.08
2022-09-04T18:11:29.296Z,65.42
2022-09-04T18:14:18.803Z,63.44
2022-09-04T18:17:11.705Z,67.53
2022-09-04T18:20:09.507Z,68.27
2022-09-04T18:23:16.614Z,68.04
2022-09-04T18:26:09.091Z,68.10
2022-09-04T18:29:04.202Z,68.88
2022-09-04T18:37:21.859Z,67.58
2022-09-04T18:37:22.869Z,67.41
2022-09-04T18:39:08.968Z,68.28
2022-09-04T18:50:22.702Z,68.52
2022-09-04T18:50:39.645Z,70.14
2022-09-04T18:50:46.487Z,70.51
2022-09-04T18:51:46.167Z,70.69
2022-09-04T18:54:40.699Z,68.84
2022-09-04T18:57:31.908Z,68.82
2022-09-04T19:00:28.364Z,69.03
2022-09-04T19:03:25.238Z,70.66
2022-09-04T19:06:14.898Z,71.10
2022-09-04T19:09:09.258Z,71.64
2022-09-04T19:12:00.939Z,71.29
2022-09-04T19:14:48.450Z,71.44
2022-09-04T19:17:40.408Z,68.42
2022-09-04T19:20:37.820Z,67.69
2022-09-04T19:23:34.226Z,66.54
2022-09-04T19:26:41.134Z,66.11
2022-09-04T19:29:41.512Z,64.70
2022-09-04T19:32:40.195Z,66.88
2022-09-04T19:35:52.167Z,66.75
2022-09-04T19:44:13.586Z,66.17
2022-09-04T19:46:06.803Z,65.16
2022-09-04T19:46:26.190Z,65.53
2022-09-04T19:48:16.726Z,66.84
2022-09-04T19:53:33.748Z,64.80
2022-09-04T19:54:20.116Z,64.24
2022-09-04T19:57:32.191Z,66.19
2022-09-04T20:00:42.762Z,66.17
2022-09-04T20:03:45.732Z,67.23
2022-09-04T20:06:39.559Z,68.39
2022-09-04T20:09:33.911Z,68.69
2022-09-04T20:12:50.688Z,69.47
2022-09-04T20:15:43.669Z,69.68
2022-09-04T20:18:38.870Z,69.57
2022-09-04T20:21:27.199Z,69.19
2022-09-04T20:24:24.803Z,68.12
2022-09-04T20:27:55.508Z,67.63
2022-09-04T20:30:45.018Z,66.66
2022-09-04T20:33:35.225Z,66.56
2022-09-04T20:36:28.885Z,66.36
2022-09-04T20:39:34.770Z,66.93
2022-09-04T20:42:39.284Z,69.08
2022-09-04T20:49:09.532Z,68.83
2022-09-04T20:52:54.579Z,67.57
2022-09-04T20:52:55.268Z,67.15
2022-09-04T20:55:18.136Z,66.86
2022-09-04T21:03:07.524Z,69.10
2022-09-04T21:03:21.363Z,70.74
2022-09-04T21:05:33.444Z,69.50
2022-09-04T21:08:41.633Z,71.69
2022-09-04T21:11:50.749Z,70.95
2022-09-04T21:14:45.716Z,70.27
2022-09-04T21:17:53.231Z,69.84
2022-09-04T21:20:59.981Z,70.12
2022-09-04T21:24:14.806Z,69.77
2022-09-04T21:27:29.395Z,68.88
2022-09-04T21:30:17.967Z,67.60
2022-09-04T21:33:27.835Z,68.09
2022-09-04T21:36:26.136Z,67.46
2022-09-04T21:39:48.671Z,68.58
2022-09-04T21:43:03.166Z,69.32
2022-09-04T21:46:04.657Z,71.65
2022-09-04T21:49:07.971Z,73.09
2022-09-04T21:51:59.476Z,72.33
2022-09-04T21:58:21.223Z,73.74
2022-09-04T22:02:38.282Z,77.14
2022-09-04T22:02:44.605Z,75.53
2022-09-04T22:05:26.821Z,76.20
2022-09-04T22:13:29.561Z,77.58
2022-09-04T22:13:43.194Z,77.33
2022-09-04T22:15:17.844Z,78.19
2022-09-04T22:18:32.170Z,78.01
2022-09-04T22:21:35.666Z,77.38
2022-09-04T22:24:58.853Z,78.35
2022-09-04T22:28:09.675Z,77.47
2022-09-04T22:31:04.104Z,81.09
2022-09-04T22:34:17.578Z,82.22
2022-09-04T22:37:02.572Z,83.31
2022-09-04T22:40:12.765Z,83.13
2022-09-04T22:43:22.618Z,82.78
2022-09-04T22:46:34.326Z,83.70
2022-09-04T22:49:58.328Z,84.78
2022-09-04T22:53:12.651Z,85.08
2022-09-04T22:56:23.417Z,84.72
2022-09-04T22:59:26.774Z,83.86
2022-09-04T23:02:15.321Z,82.85
2022-09-04T23:05:41.635Z,82.15
2022-09-04T23:13:48.231Z,81.28
2022-09-04T23:13:59.443Z,79.33
2022-09-04T23:15:55.643Z,77.47
2022-09-04T23:25:41.701Z,80.77
2022-09-04T23:26:43.052Z,83.35
2022-09-04T23:26:49.987Z,83.03
2022-09-04T23:29:44.813Z,84.87
2022-09-04T23:32:48.968Z,86.46
2022-09-04T23:35:46.249Z,86.67
2022-09-04T23:38:40.632Z,86.39
2022-09-04T23:41:57.034Z,85.53
2022-09-04T23:45:21.378Z,85.93
2022-09-04T23:48:52.313Z,86.48
2022-09-04T23:51:40.457Z,84.79
2022-09-04T23:54:52.143Z,86.50
2022-09-04T23:57:58.892Z,87.60
